createdAt,value
2018-07-08T00:00:45.677Z,0.00
2018-07-08T00:01:45.917Z,0.00
2018-07-08T00:02:46.166Z,0.00
2018-07-08T00:03:46.406Z,0.00
2018-07-08T00:04:46.647Z,0.00
2018-07-08T00:05:46.889Z,0.00
2018-07-08T00:06:47.130Z,0.00
2018-07-08T00:07:47.374Z,0.00
2018-07-08T00:08:47.616Z,0.00
2018-07-08T00:09:47.858Z,0.00
2018-07-08T00:10:48.100Z,0.00
2018-07-08T00:11:48.341Z,0.00
2018-07-08T00:12:48.582Z,0.00
2018-07-08T00:13:48.826Z,0.00
2018-07-08T00:14:49.068Z,0.00
2018-07-08T00:15:49.308Z,0.00
2018-07-08T00:16:49.548Z,0.00
2018-07-08T00:17:49.792Z,0.00
2018-07-08T00:18:50.033Z,0.00
2018-07-08T00:19:50.274Z,0.00
2018-07-08T00:20:50.517Z,0.00
2018-07-08T00:21:50.757Z,0.00
2018-07-08T00:22:51.000Z,0.00
2018-07-08T00:23:51.242Z,0.00
2018-07-08T00:24:51.483Z,0.00
2018-07-08T00:25:51.725Z,0.00
2018-07-08T00:26:51.964Z,0.00
2018-07-08T00:27:52.206Z,0.00
2018-07-08T00:28:52.448Z,0.00
2018-07-08T00:29:52.691Z,0.00
2018-07-08T00:30:52.934Z,0.00
2018-07-08T00:31:53.174Z,0.00
2018-07-08T00:32:53.416Z,0.00
2018-07-08T00:33:53.658Z,0.00
2018-07-08T00:34:53.906Z,0.00
2018-07-08T00:35:54.145Z,0.00
2018-07-08T00:36:54.387Z,0.00
2018-07-08T00:37:54.629Z,0.00
2018-07-08T00:38:54.870Z,0.00
2018-07-08T00:39:55.247Z,0.00
2018-07-08T00:40:55.355Z,0.00
2018-07-08T00:41:55.598Z,0.00
2018-07-08T00:42:55.837Z,0.00
2018-07-08T00:43:56.079Z,0.00
2018-07-08T00:44:56.322Z,0.00
2018-07-08T00:45:56.562Z,0.00
2018-07-08T00:46:56.803Z,0.00
2018-07-08T00:47:57.042Z,0.00
2018-07-08T00:48:57.284Z,0.00
2018-07-08T00:49:57.525Z,0.00
2018-07-08T00:50:57.767Z,0.00
2018-07-08T00:51:58.009Z,0.00
2018-07-08T00:52:58.262Z,0.00
2018-07-08T00:53:58.494Z,0.00
2018-07-08T00:54:58.733Z,0.00
2018-07-08T00:55:58.974Z,0.00
2018-07-08T00:56:59.214Z,0.00
2018-07-08T00:57:59.478Z,0.00
2018-07-08T00:58:59.697Z,0.00
2018-07-08T00:59:59.939Z,0.00
2018-07-08T01:01:00.186Z,0.00
2018-07-08T01:02:00.421Z,0.00
2018-07-08T01:03:00.661Z,0.00
2018-07-08T01:04:00.901Z,0.00
2018-07-08T01:05:01.144Z,0.00
2018-07-08T01:06:01.384Z,0.00
2018-07-08T01:07:01.625Z,0.00
2018-07-08T01:08:01.869Z,0.00
2018-07-08T01:09:02.108Z,0.00
2018-07-08T01:10:02.349Z,0.00
2018-07-08T01:11:02.591Z,0.00
2018-07-08T01:12:02.831Z,0.00
2018-07-08T01:13:03.071Z,0.00
2018-07-08T01:14:03.311Z,0.00
2018-07-08T01:15:03.553Z,0.00
2018-07-08T01:16:03.793Z,0.00
2018-07-08T01:17:04.034Z,0.00
2018-07-08T01:18:04.275Z,0.00
2018-07-08T01:19:04.515Z,0.00
2018-07-08T01:20:04.756Z,0.00
2018-07-08T01:21:04.997Z,0.00
2018-07-08T01:22:05.240Z,0.00
2018-07-08T01:23:05.480Z,0.00
2018-07-08T01:24:05.723Z,0.00
2018-07-08T01:25:05.961Z,0.00
2018-07-08T01:26:06.204Z,0.00
2018-07-08T01:27:06.443Z,0.00
2018-07-08T01:28:06.682Z,0.00
2018-07-08T01:29:06.923Z,0.00
2018-07-08T01:30:07.163Z,0.00
2018-07-08T01:31:07.403Z,0.00
2018-07-08T01:32:07.642Z,0.00
2018-07-08T01:33:07.875Z,0.00
2018-07-08T01:34:08.102Z,0.00
2018-07-08T01:35:08.356Z,0.00
2018-07-08T01:36:08.598Z,0.00
2018-07-08T01:37:08.836Z,0.00
2018-07-08T01:38:09.076Z,0.00
2018-07-08T01:39:09.315Z,0.00
2018-07-08T01:40:09.556Z,0.00
2018-07-08T01:41:09.793Z,0.00
2018-07-08T01:42:10.038Z,0.00
2018-07-08T01:43:10.274Z,0.00
2018-07-08T01:44:10.513Z,0.00
2018-07-08T01:45:10.753Z,0.00
2018-07-08T01:46:10.992Z,0.00
2018-07-08T01:47:11.233Z,0.00
2018-07-08T01:48:11.475Z,0.00
2018-07-08T01:49:11.715Z,0.00
2018-07-08T01:50:11.956Z,0.00
2018-07-08T01:51:12.195Z,0.00
2018-07-08T01:52:12.437Z,0.00
2018-07-08T01:53:12.679Z,0.00
2018-07-08T01:54:12.919Z,0.00
2018-07-08T01:55:13.159Z,0.00
2018-07-08T01:56:13.398Z,0.00
2018-07-08T01:57:13.639Z,0.00
2018-07-08T01:58:13.878Z,0.00
2018-07-08T01:59:14.117Z,0.00
2018-07-08T02:00:14.360Z,0.00
2018-07-08T02:01:14.597Z,0.00
2018-07-08T02:02:14.839Z,0.00
2018-07-08T02:03:15.078Z,0.00
2018-07-08T02:04:15.319Z,0.00
2018-07-08T02:05:15.559Z,0.00
2018-07-08T02:06:15.797Z,0.00
2018-07-08T02:07:16.036Z,0.00
2018-07-08T02:08:16.278Z,0.00
2018-07-08T02:09:16.520Z,0.00
2018-07-08T02:10:16.757Z,0.00
2018-07-08T02:11:16.996Z,0.00
2018-07-08T02:12:17.241Z,0.00
2018-07-08T02:13:17.479Z,0.00
2018-07-08T02:14:17.719Z,0.00
2018-07-08T02:15:17.958Z,0.00
2018-07-08T02:16:18.200Z,0.00
2018-07-08T02:17:18.438Z,0.00
2018-07-08T02:18:18.676Z,0.00
2018-07-08T02:19:18.917Z,0.00
2018-07-08T02:20:19.158Z,0.00
2018-07-08T02:21:19.396Z,0.00
2018-07-08T02:22:19.637Z,0.00
2018-07-08T02:23:19.875Z,0.00
2018-07-08T02:24:20.118Z,0.00
2018-07-08T02:25:20.358Z,0.00
2018-07-08T02:26:20.598Z,0.00
2018-07-08T02:27:20.841Z,0.00
2018-07-08T02:28:21.077Z,0.00
2018-07-08T02:29:21.317Z,0.00
2018-07-08T02:30:21.557Z,0.00
2018-07-08T02:31:21.796Z,0.00
2018-07-08T02:32:22.037Z,0.00
2018-07-08T02:33:22.282Z,0.00
2018-07-08T02:34:22.522Z,4.00
2018-07-08T02:35:22.763Z,4.00
2018-07-08T02:36:23.001Z,4.00
2018-07-08T02:37:23.241Z,0.00
2018-07-08T02:38:23.480Z,4.00
2018-07-08T02:39:23.721Z,4.00
2018-07-08T02:40:23.959Z,4.00
2018-07-08T02:41:24.200Z,4.00
2018-07-08T02:42:24.445Z,8.00
2018-07-08T02:43:24.685Z,4.00
2018-07-08T02:44:24.923Z,8.00
2018-07-08T02:45:25.162Z,8.00
2018-07-08T02:46:25.402Z,8.00
2018-07-08T02:47:25.640Z,12.00
2018-07-08T02:48:25.879Z,12.00
2018-07-08T02:49:26.120Z,16.00
2018-07-08T02:50:26.360Z,16.00
2018-07-08T02:51:26.599Z,16.00
2018-07-08T02:52:26.843Z,20.00
2018-07-08T02:53:27.079Z,20.00
2018-07-08T02:54:27.319Z,28.00
2018-07-08T02:55:27.559Z,28.00
2018-07-08T02:56:27.798Z,36.00
2018-07-08T02:57:28.038Z,40.00
2018-07-08T02:58:28.277Z,44.00
2018-07-08T02:59:28.517Z,48.00
2018-07-08T03:00:28.756Z,56.00
2018-07-08T03:01:28.996Z,64.00
2018-07-08T03:02:29.236Z,68.00
2018-07-08T03:03:29.476Z,76.00
2018-07-08T03:04:29.722Z,88.00
2018-07-08T03:05:29.955Z,96.00
2018-07-08T03:06:30.194Z,112.00
2018-07-08T03:07:30.432Z,120.00
2018-07-08T03:08:30.674Z,136.00
2018-07-08T03:09:30.913Z,152.00
2018-07-08T03:10:31.152Z,168.00
2018-07-08T03:11:31.392Z,184.00
2018-07-08T03:12:31.636Z,204.00
2018-07-08T03:13:31.872Z,220.00
2018-07-08T03:14:32.111Z,240.00
2018-07-08T03:15:32.350Z,264.00
2018-07-08T03:16:32.593Z,284.00
2018-07-08T03:17:32.829Z,304.00
2018-07-08T03:18:33.073Z,328.00
2018-07-08T03:19:33.311Z,352.00
2018-07-08T03:20:33.554Z,380.00
2018-07-08T03:21:33.791Z,404.00
2018-07-08T03:22:34.036Z,432.00
2018-07-08T03:23:34.272Z,460.00
2018-07-08T03:24:34.512Z,488.00
2018-07-08T03:25:34.752Z,512.00
2018-07-08T03:26:34.993Z,540.00
2018-07-08T03:27:35.233Z,568.00
2018-07-08T03:28:35.473Z,596.00
2018-07-08T03:29:35.714Z,628.00
2018-07-08T03:30:35.954Z,660.00
2018-07-08T03:31:36.192Z,692.00
2018-07-08T03:32:36.437Z,720.00
2018-07-08T03:33:36.674Z,752.00
2018-07-08T03:34:36.912Z,788.00
2018-07-08T03:35:37.152Z,828.00
2018-07-08T03:36:37.392Z,868.00
2018-07-08T03:37:37.633Z,908.00
2018-07-08T03:38:37.873Z,948.00
2018-07-08T03:39:38.112Z,992.00
2018-07-08T03:40:38.353Z,1036.00
2018-07-08T03:41:38.591Z,1080.00
2018-07-08T03:42:38.830Z,1128.00
2018-07-08T03:43:39.071Z,1172.00
2018-07-08T03:44:39.311Z,1228.00
2018-07-08T03:45:39.549Z,1280.00
2018-07-08T03:46:39.791Z,1348.00
2018-07-08T03:47:40.029Z,1436.00
2018-07-08T03:48:40.269Z,1528.00
2018-07-08T03:49:40.509Z,1608.00
2018-07-08T03:50:40.750Z,1652.00
2018-07-08T03:51:40.990Z,1648.00
2018-07-08T03:52:41.229Z,1712.00
2018-07-08T03:53:41.467Z,1748.00
2018-07-08T03:54:41.710Z,1736.00
2018-07-08T03:55:41.952Z,1756.00
2018-07-08T03:56:42.188Z,1804.00
2018-07-08T03:57:42.428Z,1836.00
2018-07-08T03:58:42.667Z,1880.00
2018-07-08T03:59:42.907Z,1932.00
2018-07-08T04:00:43.147Z,1960.00
2018-07-08T04:01:43.385Z,1988.00
2018-07-08T04:02:43.628Z,2044.00
2018-07-08T04:03:43.867Z,2092.00
2018-07-08T04:04:44.108Z,2152.00
2018-07-08T04:05:44.347Z,2212.00
2018-07-08T04:06:44.588Z,2208.00
2018-07-08T04:07:44.828Z,2224.00
2018-07-08T04:08:45.068Z,2288.00
2018-07-08T04:09:45.309Z,2404.00
2018-07-08T04:10:45.547Z,2544.00
2018-07-08T04:11:45.786Z,2716.00
2018-07-08T04:12:46.028Z,2884.00
2018-07-08T04:13:46.268Z,3008.00
2018-07-08T04:14:46.507Z,3104.00
2018-07-08T04:15:46.747Z,3216.00
2018-07-08T04:16:46.988Z,3328.00
2018-07-08T04:17:47.228Z,3364.00
2018-07-08T04:18:47.469Z,3436.00
2018-07-08T04:19:47.709Z,3408.00
2018-07-08T04:20:47.949Z,3268.00
2018-07-08T04:21:48.191Z,3152.00
2018-07-08T04:22:48.431Z,3168.00
2018-07-08T04:23:48.668Z,3248.00
2018-07-08T04:24:48.907Z,3440.00
2018-07-08T04:25:49.147Z,3416.00
2018-07-08T04:26:49.387Z,3316.00
2018-07-08T04:27:49.627Z,3220.00
2018-07-08T04:28:49.867Z,3112.00
2018-07-08T04:29:50.107Z,3112.00
2018-07-08T04:30:50.348Z,3168.00
2018-07-08T04:31:50.591Z,3252.00
2018-07-08T04:32:50.829Z,3488.00
2018-07-08T04:33:51.071Z,3908.00
2018-07-08T04:34:51.357Z,4156.00
2018-07-08T04:35:51.553Z,4384.00
2018-07-08T04:36:51.792Z,4552.00
2018-07-08T04:37:52.033Z,4644.00
2018-07-08T04:38:52.276Z,4700.00
2018-07-08T04:39:52.518Z,4740.00
2018-07-08T04:40:52.759Z,4780.00
2018-07-08T04:41:53.001Z,4820.00
2018-07-08T04:42:53.242Z,4852.00
2018-07-08T04:43:53.482Z,4888.00
2018-07-08T04:44:53.722Z,4920.00
2018-07-08T04:45:53.963Z,4944.00
2018-07-08T04:46:54.203Z,4984.00
2018-07-08T04:47:54.443Z,5024.00
2018-07-08T04:48:54.685Z,5052.00
2018-07-08T04:49:54.925Z,5088.00
2018-07-08T04:50:55.169Z,5132.00
2018-07-08T04:51:55.407Z,5168.00
2018-07-08T04:52:55.649Z,5204.00
2018-07-08T04:53:55.891Z,5244.00
2018-07-08T04:54:56.131Z,5276.00
2018-07-08T04:55:56.400Z,5304.00
2018-07-08T04:56:56.612Z,5328.00
2018-07-08T04:57:56.852Z,5352.00
2018-07-08T04:58:57.095Z,5380.00
2018-07-08T04:59:57.336Z,5404.00
2018-07-08T05:00:57.591Z,5432.00
2018-07-08T05:01:57.817Z,5456.00
2018-07-08T05:02:58.062Z,5484.00
2018-07-08T05:03:58.302Z,5528.00
2018-07-08T05:04:58.540Z,5564.00
2018-07-08T05:05:58.781Z,5584.00
2018-07-08T05:06:59.024Z,5604.00
2018-07-08T05:07:59.264Z,5620.00
2018-07-08T05:08:59.505Z,5656.00
2018-07-08T05:09:59.748Z,5676.00
2018-07-08T05:10:59.991Z,5692.00
2018-07-08T05:12:00.232Z,5712.00
2018-07-08T05:13:00.477Z,5736.00
2018-07-08T05:14:00.714Z,5752.00
2018-07-08T05:15:00.955Z,5784.00
2018-07-08T05:16:01.198Z,5804.00
2018-07-08T05:17:01.438Z,5836.00
2018-07-08T05:18:01.683Z,5896.00
2018-07-08T05:19:01.923Z,5960.00
2018-07-08T05:20:02.180Z,6000.00
2018-07-08T05:21:02.423Z,5992.00
2018-07-08T05:22:02.661Z,6000.00
2018-07-08T05:23:02.904Z,6004.00
2018-07-08T05:24:03.149Z,5996.00
2018-07-08T05:25:03.391Z,5996.00
2018-07-08T05:26:03.628Z,5992.00
2018-07-08T05:27:03.871Z,5996.00
2018-07-08T05:28:04.114Z,6012.00
2018-07-08T05:29:04.354Z,6044.00
2018-07-08T05:30:04.596Z,6064.00
2018-07-08T05:31:04.839Z,6072.00
2018-07-08T05:32:05.079Z,6076.00
2018-07-08T05:33:05.322Z,6088.00
2018-07-08T05:34:05.565Z,6092.00
2018-07-08T05:35:05.806Z,6080.00
2018-07-08T05:36:06.040Z,6088.00
2018-07-08T05:37:06.290Z,6092.00
2018-07-08T05:38:06.533Z,6104.00
2018-07-08T05:39:06.774Z,6116.00
2018-07-08T05:40:07.016Z,6128.00
2018-07-08T05:41:07.259Z,6144.00
2018-07-08T05:42:07.502Z,6152.00
2018-07-08T05:43:07.744Z,6156.00
2018-07-08T05:44:07.989Z,6160.00
2018-07-08T05:45:08.231Z,6184.00
2018-07-08T05:46:08.477Z,6192.00
2018-07-08T05:47:08.716Z,6204.00
2018-07-08T05:48:08.956Z,6224.00
2018-07-08T05:49:09.198Z,6244.00
2018-07-08T05:50:09.537Z,6268.00
2018-07-08T05:51:09.682Z,6264.00
2018-07-08T05:52:09.926Z,6252.00
2018-07-08T05:53:10.168Z,6256.00
2018-07-08T05:54:10.411Z,6272.00
2018-07-08T05:55:10.653Z,6280.00
2018-07-08T05:56:10.893Z,6292.00
2018-07-08T05:57:11.137Z,6304.00
2018-07-08T05:58:11.379Z,6312.00
2018-07-08T05:59:11.621Z,6332.00
2018-07-08T06:00:11.863Z,6332.00
2018-07-08T06:01:12.106Z,6344.00
2018-07-08T06:02:12.348Z,6352.00
2018-07-08T06:03:12.590Z,6360.00
2018-07-08T06:04:12.835Z,6376.00
2018-07-08T06:05:13.080Z,6392.00
2018-07-08T06:06:13.321Z,6392.00
2018-07-08T06:07:13.564Z,6404.00
2018-07-08T06:08:13.806Z,6420.00
2018-07-08T06:09:14.048Z,6428.00
2018-07-08T06:10:14.293Z,6444.00
2018-07-08T06:11:14.534Z,6460.00
2018-07-08T06:12:14.776Z,6472.00
2018-07-08T06:13:15.019Z,6488.00
2018-07-08T06:14:15.261Z,6500.00
2018-07-08T06:15:15.514Z,6512.00
2018-07-08T06:16:15.751Z,6520.00
2018-07-08T06:17:15.991Z,6532.00
2018-07-08T06:18:16.232Z,6548.00
2018-07-08T06:19:16.475Z,6572.00
2018-07-08T06:20:16.716Z,6576.00
2018-07-08T06:21:16.960Z,6584.00
2018-07-08T06:22:17.203Z,6600.00
2018-07-08T06:23:17.448Z,6596.00
2018-07-08T06:24:17.690Z,6600.00
2018-07-08T06:25:17.932Z,6604.00
2018-07-08T06:26:18.176Z,6612.00
2018-07-08T06:27:18.418Z,6628.00
2018-07-08T06:28:18.661Z,6644.00
2018-07-08T06:29:18.904Z,6664.00
2018-07-08T06:30:19.148Z,6680.00
2018-07-08T06:31:19.390Z,6696.00
2018-07-08T06:32:19.632Z,6716.00
2018-07-08T06:33:19.876Z,6728.00
2018-07-08T06:34:20.120Z,6748.00
2018-07-08T06:35:20.363Z,6760.00
2018-07-08T06:36:20.605Z,6772.00
2018-07-08T06:37:20.848Z,6788.00
2018-07-08T06:38:21.090Z,6812.00
2018-07-08T06:39:21.333Z,6828.00
2018-07-08T06:40:21.576Z,6840.00
2018-07-08T06:41:21.820Z,6856.00
2018-07-08T06:42:22.064Z,6864.00
2018-07-08T06:43:22.305Z,6884.00
2018-07-08T06:44:22.549Z,6904.00
2018-07-08T06:45:22.791Z,6924.00
2018-07-08T06:46:23.034Z,6936.00
2018-07-08T06:47:23.279Z,6952.00
2018-07-08T06:48:23.520Z,6960.00
2018-07-08T06:49:23.764Z,6968.00
2018-07-08T06:50:24.008Z,6984.00
2018-07-08T06:51:24.250Z,6992.00
2018-07-08T06:52:24.493Z,7000.00
2018-07-08T06:53:24.735Z,7016.00
2018-07-08T06:54:24.980Z,7032.00
2018-07-08T06:55:25.223Z,7036.00
2018-07-08T06:56:25.465Z,7048.00
2018-07-08T06:57:25.708Z,7052.00
2018-07-08T06:58:25.950Z,7056.00
2018-07-08T06:59:26.201Z,7076.00
2018-07-08T07:00:26.438Z,7088.00
2018-07-08T07:01:26.681Z,7100.00
2018-07-08T07:02:26.924Z,7100.00
2018-07-08T07:03:27.167Z,7112.00
2018-07-08T07:04:27.409Z,7136.00
2018-07-08T07:05:27.653Z,7168.00
2018-07-08T07:06:27.897Z,7196.00
2018-07-08T07:07:28.140Z,7204.00
2018-07-08T07:08:28.381Z,7212.00
2018-07-08T07:09:28.625Z,7232.00
2018-07-08T07:10:28.867Z,7268.00
2018-07-08T07:11:29.110Z,7292.00
2018-07-08T07:12:29.353Z,7308.00
2018-07-08T07:13:29.598Z,7332.00
2018-07-08T07:14:29.840Z,7356.00
2018-07-08T07:15:30.083Z,7388.00
2018-07-08T07:16:30.329Z,7408.00
2018-07-08T07:17:30.591Z,7444.00
2018-07-08T07:18:30.815Z,7472.00
2018-07-08T07:19:31.058Z,7492.00
2018-07-08T07:20:31.302Z,7536.00
2018-07-08T07:21:31.548Z,7560.00
2018-07-08T07:22:31.790Z,7588.00
2018-07-08T07:23:32.034Z,7988.00
2018-07-08T07:24:32.276Z,9432.00
2018-07-08T07:25:32.519Z,11452.00
2018-07-08T07:26:32.764Z,11680.00
2018-07-08T07:27:33.009Z,11172.00
2018-07-08T07:28:33.307Z,11524.00
2018-07-08T07:29:33.501Z,11612.00
2018-07-08T07:30:33.741Z,11164.00
2018-07-08T07:31:33.986Z,10820.00
2018-07-08T07:32:34.231Z,10676.00
2018-07-08T07:33:34.475Z,10692.00
2018-07-08T07:34:34.723Z,10764.00
2018-07-08T07:35:34.967Z,10756.00
2018-07-08T07:36:35.212Z,10616.00
2018-07-08T07:37:35.460Z,10692.00
2018-07-08T07:38:35.705Z,10796.00
2018-07-08T07:39:35.951Z,10844.00
2018-07-08T07:40:36.200Z,10852.00
2018-07-08T07:41:36.448Z,11088.00
2018-07-08T07:42:36.697Z,11228.00
2018-07-08T07:43:36.945Z,11192.00
2018-07-08T07:44:37.195Z,11056.00
2018-07-08T07:45:37.443Z,11052.00
2018-07-08T07:46:37.692Z,11176.00
2018-07-08T07:47:37.939Z,11236.00
2018-07-08T07:48:38.188Z,11180.00
2018-07-08T07:49:38.435Z,11292.00
2018-07-08T07:50:38.683Z,11436.00
2018-07-08T07:51:38.930Z,11432.00
2018-07-08T07:52:39.181Z,11372.00
2018-07-08T07:53:39.428Z,10384.00
2018-07-08T07:54:39.677Z,10196.00
2018-07-08T07:55:39.927Z,10956.00
2018-07-08T07:56:40.176Z,9832.00
2018-07-08T07:57:40.425Z,10944.00
2018-07-08T07:58:40.673Z,11216.00
2018-07-08T07:59:40.924Z,11372.00
2018-07-08T08:00:41.172Z,11644.00
2018-07-08T08:01:41.420Z,11904.00
2018-07-08T08:02:41.674Z,12072.00
2018-07-08T08:03:41.920Z,11952.00
2018-07-08T08:04:42.170Z,11920.00
2018-07-08T08:05:42.418Z,12084.00
2018-07-08T08:06:42.668Z,12192.00
2018-07-08T08:07:42.917Z,12028.00
2018-07-08T08:08:43.167Z,11768.00
2018-07-08T08:09:43.415Z,12164.00
2018-07-08T08:10:43.704Z,12720.00
2018-07-08T08:11:43.914Z,12744.00
2018-07-08T08:12:44.164Z,12696.00
2018-07-08T08:13:44.434Z,12772.00
2018-07-08T08:14:44.666Z,12452.00
2018-07-08T08:15:44.919Z,12704.00
2018-07-08T08:16:45.172Z,13248.00
2018-07-08T08:17:45.420Z,13856.00
2018-07-08T08:18:45.671Z,13964.00
2018-07-08T08:19:45.920Z,14268.00
2018-07-08T08:20:46.171Z,14352.00
2018-07-08T08:21:46.424Z,14588.00
2018-07-08T08:22:46.678Z,14840.00
2018-07-08T08:23:46.926Z,15124.00
2018-07-08T08:24:47.177Z,15476.00
2018-07-08T08:25:47.427Z,15488.00
2018-07-08T08:26:47.739Z,14580.00
2018-07-08T08:27:47.931Z,13212.00
2018-07-08T08:28:48.180Z,13504.00
2018-07-08T08:29:48.431Z,13592.00
2018-07-08T08:30:48.685Z,13356.00
2018-07-08T08:31:48.936Z,13252.00
2018-07-08T08:32:49.252Z,13080.00
2018-07-08T08:33:49.440Z,12956.00
2018-07-08T08:34:49.691Z,13008.00
2018-07-08T08:35:49.941Z,13236.00
2018-07-08T08:36:50.192Z,14012.00
2018-07-08T08:37:50.443Z,16400.00
2018-07-08T08:38:50.704Z,19296.00
2018-07-08T08:39:50.946Z,21664.00
2018-07-08T08:40:51.198Z,23680.00
2018-07-08T08:41:51.448Z,24768.00
2018-07-08T08:42:51.701Z,24800.00
2018-07-08T08:43:51.951Z,25664.00
2018-07-08T08:44:52.202Z,26432.00
2018-07-08T08:45:52.473Z,27296.00
2018-07-08T08:46:52.705Z,29280.00
2018-07-08T08:47:52.960Z,30496.00
2018-07-08T08:48:53.212Z,30496.00
2018-07-08T08:49:53.465Z,29920.00
2018-07-08T08:50:53.717Z,29216.00
2018-07-08T08:51:53.970Z,30400.00
2018-07-08T08:52:54.222Z,31392.00
2018-07-08T08:53:54.474Z,32192.00
2018-07-08T08:54:54.726Z,33216.00
2018-07-08T08:55:54.979Z,32352.00
2018-07-08T08:56:55.232Z,33024.00
2018-07-08T08:57:55.489Z,35328.00
2018-07-08T08:58:55.737Z,36800.00
2018-07-08T08:59:55.992Z,37216.00
2018-07-08T09:00:56.244Z,37632.00
2018-07-08T09:01:56.497Z,37472.00
2018-07-08T09:02:56.750Z,37440.00
2018-07-08T09:03:57.003Z,38240.00
2018-07-08T09:04:57.256Z,38976.00
2018-07-08T09:05:57.509Z,39808.00
2018-07-08T09:06:57.763Z,41344.00
2018-07-08T09:07:58.016Z,41056.00
2018-07-08T09:08:58.270Z,40480.00
2018-07-08T09:09:58.523Z,39584.00
2018-07-08T09:10:58.776Z,39712.00
2018-07-08T09:11:59.030Z,41184.00
2018-07-08T09:12:59.285Z,41728.00
2018-07-08T09:13:59.536Z,40704.00
2018-07-08T09:14:59.790Z,39296.00
2018-07-08T09:16:00.046Z,39936.00
2018-07-08T09:17:00.298Z,37024.00
2018-07-08T09:18:00.557Z,43904.00
2018-07-08T09:19:00.809Z,45120.00
2018-07-08T09:20:01.063Z,45248.00
2018-07-08T09:21:01.317Z,43744.00
2018-07-08T09:22:01.574Z,42944.00
2018-07-08T09:23:01.827Z,39456.00
2018-07-08T09:24:02.121Z,40960.00
2018-07-08T09:25:02.345Z,41536.00
2018-07-08T09:26:02.590Z,42528.00
2018-07-08T09:27:02.845Z,45440.00
2018-07-08T09:28:03.097Z,48800.00
2018-07-08T09:29:03.352Z,48864.00
2018-07-08T09:30:03.607Z,49248.00
2018-07-08T09:31:03.861Z,50240.00
2018-07-08T09:32:04.115Z,51200.00
2018-07-08T09:33:04.370Z,51840.00
2018-07-08T09:34:04.624Z,52256.00
2018-07-08T09:35:04.876Z,52416.00
2018-07-08T09:36:05.130Z,50496.00
2018-07-08T09:37:05.385Z,51840.00
2018-07-08T09:38:05.640Z,49312.00
2018-07-08T09:39:05.927Z,48640.00
2018-07-08T09:40:06.149Z,49344.00
2018-07-08T09:41:06.404Z,49056.00
2018-07-08T09:42:06.658Z,48768.00
2018-07-08T09:43:06.913Z,46432.00
2018-07-08T09:44:07.171Z,44160.00
2018-07-08T09:45:07.422Z,44288.00
2018-07-08T09:46:07.674Z,46240.00
2018-07-08T09:47:07.935Z,48128.00
2018-07-08T09:48:08.187Z,50176.00
2018-07-08T09:49:08.436Z,53280.00
2018-07-08T09:50:08.692Z,52192.00
2018-07-08T09:51:08.948Z,51712.00
2018-07-08T09:52:09.202Z,51264.00
2018-07-08T09:53:09.456Z,55232.00
2018-07-08T09:54:09.710Z,59200.00
2018-07-08T09:55:09.965Z,58688.00
2018-07-08T09:56:10.221Z,58912.00
2018-07-08T09:57:10.475Z,61248.00
2018-07-08T09:58:10.732Z,62592.00
2018-07-08T09:59:10.987Z,63232.00
2018-07-08T10:00:11.242Z,60928.00
2018-07-08T10:01:11.497Z,59744.00
2018-07-08T10:02:11.749Z,58336.00
2018-07-08T10:03:12.003Z,58464.00
2018-07-08T10:04:12.258Z,59520.00
2018-07-08T10:05:12.563Z,61728.00
2018-07-08T10:06:12.767Z,60832.00
2018-07-08T10:07:13.022Z,60832.00
2018-07-08T10:08:13.276Z,65408.00
2018-07-08T10:09:13.531Z,65952.00
2018-07-08T10:10:13.785Z,64832.00
2018-07-08T10:11:14.041Z,64416.00
2018-07-08T10:12:14.296Z,66400.00
2018-07-08T10:13:14.551Z,68672.00
2018-07-08T10:14:14.805Z,69728.00
2018-07-08T10:15:15.061Z,66496.00
2018-07-08T10:16:15.359Z,67456.00
2018-07-08T10:17:15.570Z,69856.00
2018-07-08T10:18:15.824Z,65920.00
2018-07-08T10:19:16.131Z,65024.00
2018-07-08T10:20:16.336Z,66688.00
2018-07-08T10:21:16.592Z,66464.00
2018-07-08T10:22:16.852Z,66976.00
2018-07-08T10:23:17.104Z,67648.00
2018-07-08T10:24:17.361Z,65312.00
2018-07-08T10:25:17.629Z,64448.00
2018-07-08T10:26:17.872Z,68576.00
2018-07-08T10:27:18.128Z,71488.00
2018-07-08T10:28:18.382Z,71680.00
2018-07-08T10:29:18.640Z,72544.00
2018-07-08T10:30:18.928Z,74176.00
2018-07-08T10:31:19.153Z,75968.00
2018-07-08T10:32:19.409Z,76864.00
2018-07-08T10:33:19.662Z,76320.00
2018-07-08T10:34:19.924Z,73760.00
2018-07-08T10:35:20.173Z,72768.00
2018-07-08T10:36:20.428Z,77152.00
2018-07-08T10:37:20.683Z,78080.00
2018-07-08T10:38:20.970Z,76928.00
2018-07-08T10:39:21.194Z,77536.00
2018-07-08T10:40:21.451Z,75680.00
2018-07-08T10:41:21.705Z,75680.00
2018-07-08T10:42:21.961Z,75104.00
2018-07-08T10:43:22.260Z,75072.00
2018-07-08T10:44:22.472Z,76704.00
2018-07-08T10:45:22.730Z,74528.00
2018-07-08T10:46:22.984Z,73888.00
2018-07-08T10:47:23.241Z,73728.00
2018-07-08T10:48:23.495Z,72640.00
2018-07-08T10:49:23.752Z,71008.00
2018-07-08T10:50:24.009Z,68992.00
2018-07-08T10:51:24.265Z,70112.00
2018-07-08T10:52:24.523Z,76896.00
2018-07-08T10:53:24.776Z,75840.00
2018-07-08T10:54:25.033Z,69664.00
2018-07-08T10:55:25.319Z,71360.00
2018-07-08T10:56:25.548Z,74272.00
2018-07-08T10:57:25.804Z,67936.00
2018-07-08T10:58:26.061Z,64640.00
2018-07-08T10:59:26.318Z,68672.00
2018-07-08T11:00:26.572Z,73376.00
2018-07-08T11:01:26.830Z,75904.00
2018-07-08T11:02:27.089Z,76352.00
2018-07-08T11:03:27.343Z,76608.00
2018-07-08T11:04:27.600Z,77952.00
2018-07-08T11:05:27.856Z,77408.00
2018-07-08T11:06:28.108Z,75264.00
2018-07-08T11:07:28.365Z,74272.00
2018-07-08T11:08:28.621Z,74752.00
2018-07-08T11:09:28.878Z,76416.00
2018-07-08T11:10:29.133Z,77856.00
2018-07-08T11:11:29.391Z,76192.00
2018-07-08T11:12:29.649Z,73600.00
2018-07-08T11:13:29.905Z,74144.00
2018-07-08T11:14:30.161Z,75392.00
2018-07-08T11:15:30.418Z,75168.00
2018-07-08T11:16:30.677Z,73248.00
2018-07-08T11:17:30.932Z,71744.00
2018-07-08T11:18:31.188Z,70720.00
2018-07-08T11:19:31.445Z,69984.00
2018-07-08T11:20:31.703Z,74784.00
2018-07-08T11:21:31.957Z,75520.00
2018-07-08T11:22:32.213Z,72352.00
2018-07-08T11:23:32.470Z,70336.00
2018-07-08T11:24:32.726Z,69056.00
2018-07-08T11:25:32.984Z,72448.00
2018-07-08T11:26:33.241Z,78208.00
2018-07-08T11:27:33.500Z,78272.00
2018-07-08T11:28:33.804Z,74976.00
2018-07-08T11:29:34.017Z,72256.00
2018-07-08T11:30:34.268Z,72416.00
2018-07-08T11:31:34.524Z,74400.00
2018-07-08T11:32:34.781Z,75840.00
2018-07-08T11:33:35.040Z,75328.00
2018-07-08T11:34:35.293Z,75136.00
2018-07-08T11:35:35.550Z,76032.00
2018-07-08T11:36:35.808Z,72896.00
2018-07-08T11:37:36.064Z,71136.00
2018-07-08T11:38:36.319Z,75584.00
2018-07-08T11:39:36.580Z,76992.00
2018-07-08T11:40:36.840Z,74720.00
2018-07-08T11:41:37.092Z,73728.00
2018-07-08T11:42:37.351Z,72736.00
2018-07-08T11:43:37.607Z,73024.00
2018-07-08T11:44:37.863Z,76384.00
2018-07-08T11:45:38.120Z,79168.00
2018-07-08T11:46:38.378Z,78880.00
2018-07-08T11:47:38.634Z,78752.00
2018-07-08T11:48:38.892Z,78304.00
2018-07-08T11:49:39.145Z,74208.00
2018-07-08T11:50:39.401Z,73120.00
2018-07-08T11:51:39.662Z,78464.00
2018-07-08T11:52:39.914Z,79776.00
2018-07-08T11:53:40.171Z,75616.00
2018-07-08T11:54:40.427Z,77984.00
2018-07-08T11:55:40.683Z,84448.00
2018-07-08T11:56:40.939Z,85472.00
2018-07-08T11:57:41.196Z,83648.00
2018-07-08T11:58:41.452Z,83296.00
2018-07-08T11:59:41.710Z,82400.00
2018-07-08T12:00:41.966Z,84096.00
2018-07-08T12:01:42.271Z,87136.00
2018-07-08T12:02:42.477Z,82976.00
2018-07-08T12:03:42.737Z,78528.00
2018-07-08T12:04:42.997Z,80512.00
2018-07-08T12:05:43.247Z,83968.00
2018-07-08T12:06:43.505Z,82720.00
2018-07-08T12:07:43.761Z,81504.00
2018-07-08T12:08:44.026Z,81088.00
2018-07-08T12:09:44.271Z,83456.00
2018-07-08T12:10:44.526Z,85696.00
2018-07-08T12:11:44.782Z,85024.00
2018-07-08T12:12:45.039Z,83072.00
2018-07-08T12:13:45.298Z,84160.00
2018-07-08T12:14:45.554Z,87360.00
2018-07-08T12:15:45.809Z,86624.00
2018-07-08T12:16:46.065Z,85312.00
2018-07-08T12:17:46.321Z,84512.00